Terminal Aerodrome Forecast
Issued by NWS Charleston, WV

Home | Current Version | Previous Version | Text Only | Print | Product List | Glossary On
Versions: 1 2 3 4 5 6 7 8 9 10 11 12 13 14 15 16 17 18 19 20 21 22 23 24 25
000
FTUS41 KRLX 270208 AAA
TAFEKN
TAF AMD
KEKN 270208Z 2702/2724 19006KT P6SM VCTS BKN035CB
     FM270400 19005KT 4SM SHRA BR VCTS BKN030CB BKN080
     FM270800 20004KT 4SM -SHRA BR SCT001 BKN020
     FM271300 23006KT P6SM BKN025
     FM271800 25007KT P6SM BKN035=

USA.gov is the U.S. government's official web portal to all federal, state and local government web resources and services.